Terminal Aerodrome Forecast
Issued by NWS Tuscon, AZ

Home | Current Version | Previous Version | Text Only | Print | Product List | Glossary On
Versions: 1 2 3 4 5 6 7 8 9 10 11 12 13 14 15 16 17 18
000
FTUS45 KTWC 272322
TAFDUG
TAF
KDUG 272322Z 2800/2824 25016G24KT P6SM BKN100
     FM280300 25010KT P6SM SCT080 BKN120
     FM281000 30011G18KT P6SM SCT070 BKN120
     FM281600 30022G30KT P6SM SCT070=

USA.gov is the U.S. government's official web portal to all federal, state and local government web resources and services.